createdAt,value
2022-11-20T00:00:56.756Z,1000.09
2022-11-20T00:01:56.780Z,1000.11
2022-11-20T00:02:56.723Z,1000.12
2022-11-20T00:03:56.725Z,1000.11
2022-11-20T00:04:56.695Z,1000.10
2022-11-20T00:05:56.688Z,1000.09
2022-11-20T00:06:56.733Z,1000.10
2022-11-20T00:07:56.702Z,1000.11
2022-11-20T00:08:56.675Z,1000.13
2022-11-20T00:09:56.660Z,1000.17
2022-11-20T00:10:56.638Z,1000.20
2022-11-20T00:11:56.670Z,1000.22
2022-11-20T00:12:56.631Z,1000.23
2022-11-20T00:13:56.614Z,1000.24
2022-11-20T00:14:56.606Z,1000.23
2022-11-20T00:15:56.603Z,1000.23
2022-11-20T00:16:56.612Z,1000.22
2022-11-20T00:17:56.573Z,1000.22
2022-11-20T00:18:56.583Z,1000.22
2022-11-20T00:19:56.566Z,1000.21
2022-11-20T00:20:56.631Z,1000.21
2022-11-20T00:21:56.562Z,1000.21
2022-11-20T00:22:56.530Z,1000.22
2022-11-20T00:23:56.526Z,1000.22
2022-11-20T00:24:56.502Z,1000.22
2022-11-20T00:25:56.506Z,1000.23
2022-11-20T00:26:56.559Z,1000.23
2022-11-20T00:27:56.538Z,1000.24
2022-11-20T00:28:56.471Z,1000.24
2022-11-20T00:29:56.477Z,1000.24
2022-11-20T00:30:56.468Z,1000.23
2022-11-20T00:31:56.466Z,1000.23
2022-11-20T00:32:56.422Z,1000.22
2022-11-20T00:33:56.415Z,1000.22
2022-11-20T00:34:56.415Z,1000.23
2022-11-20T00:35:56.401Z,1000.24
2022-11-20T00:36:56.405Z,1000.25
2022-11-20T00:37:56.393Z,1000.26
2022-11-20T00:38:56.372Z,1000.26
2022-11-20T00:39:56.369Z,1000.26
2022-11-20T00:40:56.356Z,1000.27
2022-11-20T00:41:56.379Z,1000.28
2022-11-20T00:42:56.423Z,1000.30
2022-11-20T00:43:56.331Z,1000.30
2022-11-20T00:44:56.320Z,1000.30
2022-11-20T00:45:56.309Z,1000.30
2022-11-20T00:46:56.303Z,1000.30
2022-11-20T00:47:56.296Z,1000.29
2022-11-20T00:48:56.265Z,1000.28
2022-11-20T00:49:56.272Z,1000.27
2022-11-20T00:50:56.254Z,1000.26
2022-11-20T00:51:56.274Z,1000.24
2022-11-20T00:52:56.311Z,1000.23
2022-11-20T00:53:56.236Z,1000.22
2022-11-20T00:54:56.218Z,1000.21
2022-11-20T00:55:56.223Z,1000.21
2022-11-20T00:56:56.383Z,1000.21
2022-11-20T00:57:56.190Z,1000.21
2022-11-20T00:58:56.170Z,1000.20
2022-11-20T00:59:56.174Z,1000.18
2022-11-20T01:00:56.170Z,1000.15
2022-11-20T01:01:56.139Z,1000.14
2022-11-20T01:02:56.182Z,1000.13
2022-11-20T01:03:56.142Z,1000.13
2022-11-20T01:04:56.123Z,1000.13
2022-11-20T01:05:56.115Z,1000.13
2022-11-20T01:06:56.103Z,1000.12
2022-11-20T01:07:56.114Z,1000.10
2022-11-20T01:08:56.080Z,1000.08
2022-11-20T01:09:56.070Z,1000.06
2022-11-20T01:10:56.068Z,1000.03
2022-11-20T01:12:02.537Z,1000.01
2022-11-20T01:13:03.848Z,1000.00
2022-11-20T01:14:03.523Z,999.98
2022-11-20T01:15:02.530Z,999.97
2022-11-20T01:15:56.014Z,999.96
2022-11-20T01:16:55.997Z,999.94
2022-11-20T01:17:56.006Z,999.93
2022-11-20T01:18:55.971Z,999.92
2022-11-20T01:19:55.979Z,999.91
2022-11-20T01:20:55.970Z,999.91
2022-11-20T01:21:55.941Z,999.93
2022-11-20T01:22:55.965Z,999.94
2022-11-20T01:23:55.927Z,999.97
2022-11-20T01:24:55.906Z,999.99
2022-11-20T01:25:55.924Z,999.99
2022-11-20T01:26:55.903Z,999.99
2022-11-20T01:27:55.922Z,999.98
2022-11-20T01:28:55.870Z,999.98
2022-11-20T01:30:00.979Z,999.96
2022-11-20T01:30:55.851Z,999.93
2022-11-20T01:31:55.864Z,999.91
2022-11-20T01:32:55.854Z,999.90
2022-11-20T01:33:55.831Z,999.89
2022-11-20T01:34:55.816Z,999.87
2022-11-20T01:35:55.818Z,999.85
2022-11-20T01:36:55.803Z,999.83
2022-11-20T01:37:55.819Z,999.81
2022-11-20T01:38:55.788Z,999.80
2022-11-20T01:39:55.781Z,999.78
2022-11-20T01:40:55.756Z,999.75
2022-11-20T01:41:55.753Z,999.72
2022-11-20T01:42:55.766Z,999.70
2022-11-20T01:43:55.753Z,999.66
2022-11-20T01:44:55.743Z,999.64
2022-11-20T01:45:55.709Z,999.62
2022-11-20T01:46:55.743Z,999.61
2022-11-20T01:47:55.731Z,999.60
2022-11-20T01:48:55.707Z,999.59
2022-11-20T01:49:55.694Z,999.58
2022-11-20T01:50:55.645Z,999.57
2022-11-20T01:51:55.654Z,999.58
2022-11-20T01:52:55.641Z,999.60
2022-11-20T01:53:55.652Z,999.61
2022-11-20T01:54:55.602Z,999.63
2022-11-20T01:55:55.607Z,999.64
2022-11-20T01:56:55.594Z,999.64
2022-11-20T01:57:55.577Z,999.63
2022-11-20T01:58:55.600Z,999.62
2022-11-20T01:59:55.575Z,999.61
2022-11-20T02:00:55.566Z,999.59
2022-11-20T02:01:55.550Z,999.58
2022-11-20T02:02:55.526Z,999.55
2022-11-20T02:03:55.556Z,999.55
2022-11-20T02:04:55.519Z,999.56
2022-11-20T02:05:55.507Z,999.56
2022-11-20T02:06:55.526Z,999.57
2022-11-20T02:07:55.481Z,999.57
2022-11-20T02:08:55.504Z,999.57
2022-11-20T02:09:58.789Z,999.57
2022-11-20T02:10:55.453Z,999.57
2022-11-20T02:11:55.471Z,999.59
2022-11-20T02:12:55.438Z,999.59
2022-11-20T02:13:55.442Z,999.59
2022-11-20T02:14:55.418Z,999.58
2022-11-20T02:15:55.403Z,999.57
2022-11-20T02:16:55.397Z,999.56
2022-11-20T02:17:55.398Z,999.55
2022-11-20T02:18:55.388Z,999.54
2022-11-20T02:19:55.369Z,999.54
2022-11-20T02:20:55.355Z,999.55
2022-11-20T02:21:55.380Z,999.55
2022-11-20T02:22:55.336Z,999.56
2022-11-20T02:23:55.350Z,999.56
2022-11-20T02:24:55.310Z,999.55
2022-11-20T02:25:55.326Z,999.53
2022-11-20T02:26:55.299Z,999.51
2022-11-20T02:27:55.294Z,999.48
2022-11-20T02:28:55.303Z,999.46
2022-11-20T02:29:55.283Z,999.46
2022-11-20T02:30:55.245Z,999.46
2022-11-20T02:31:55.250Z,999.46
2022-11-20T02:32:55.229Z,999.47
2022-11-20T02:33:55.259Z,999.48
2022-11-20T02:34:55.218Z,999.49
2022-11-20T02:35:55.195Z,999.51
2022-11-20T02:36:55.198Z,999.51
2022-11-20T02:37:55.195Z,999.50
2022-11-20T02:38:55.202Z,999.49
2022-11-20T02:39:55.177Z,999.49
2022-11-20T02:40:55.877Z,999.49
2022-11-20T02:41:55.153Z,999.49
2022-11-20T02:42:55.137Z,999.48
2022-11-20T02:43:55.150Z,999.46
2022-11-20T02:44:55.120Z,999.44
2022-11-20T02:45:55.115Z,999.43
2022-11-20T02:46:55.094Z,999.43
2022-11-20T02:47:55.115Z,999.42
2022-11-20T02:48:55.147Z,999.43
2022-11-20T02:49:55.063Z,999.43
2022-11-20T02:50:55.060Z,999.42
2022-11-20T02:51:55.045Z,999.42
2022-11-20T02:52:55.036Z,999.43
2022-11-20T02:53:55.043Z,999.44
2022-11-20T02:54:55.054Z,999.45
2022-11-20T02:55:55.007Z,999.45
2022-11-20T02:56:55.006Z,999.46
2022-11-20T02:57:54.978Z,999.45
2022-11-20T02:58:54.995Z,999.42
2022-11-20T02:59:55.004Z,999.39
2022-11-20T03:00:55.017Z,999.34
2022-11-20T03:01:54.944Z,999.30
2022-11-20T03:02:54.933Z,999.27
2022-11-20T03:03:54.934Z,999.25
2022-11-20T03:04:54.942Z,999.24
2022-11-20T03:05:54.919Z,999.23
2022-11-20T03:06:54.903Z,999.22
2022-11-20T03:07:54.899Z,999.22
2022-11-20T03:08:54.879Z,999.22
2022-11-20T03:09:54.891Z,999.22
2022-11-20T03:10:54.859Z,999.22
2022-11-20T03:11:54.852Z,999.22
2022-11-20T03:12:54.853Z,999.21
2022-11-20T03:13:54.828Z,999.20
2022-11-20T03:14:54.844Z,999.19
2022-11-20T03:15:54.822Z,999.18
2022-11-20T03:16:54.802Z,999.17
2022-11-20T03:17:54.797Z,999.16
2022-11-20T03:19:01.270Z,999.16
2022-11-20T03:20:02.397Z,999.16
2022-11-20T03:21:01.549Z,999.16
2022-11-20T03:21:54.764Z,999.16
2022-11-20T03:22:54.747Z,999.16
2022-11-20T03:23:54.755Z,999.14
2022-11-20T03:24:54.742Z,999.14
2022-11-20T03:25:54.716Z,999.13
2022-11-20T03:26:54.697Z,999.14
2022-11-20T03:27:54.696Z,999.14
2022-11-20T03:28:54.678Z,999.15
2022-11-20T03:29:54.672Z,999.15
2022-11-20T03:30:54.679Z,999.14
2022-11-20T03:32:01.152Z,999.13
2022-11-20T03:33:01.129Z,999.12
2022-11-20T03:34:01.117Z,999.11
2022-11-20T03:35:02.473Z,999.08
2022-11-20T03:35:54.615Z,999.06
2022-11-20T03:36:54.597Z,999.04
2022-11-20T03:37:54.592Z,999.04
2022-11-20T03:38:54.576Z,999.03
2022-11-20T03:39:54.569Z,999.04
2022-11-20T03:40:54.587Z,999.04
2022-11-20T03:41:54.545Z,999.05
2022-11-20T03:42:54.548Z,999.04
2022-11-20T03:43:54.522Z,999.03
2022-11-20T03:44:54.521Z,999.02
2022-11-20T03:45:54.534Z,998.99
2022-11-20T03:46:54.484Z,998.96
2022-11-20T03:47:54.498Z,998.95
2022-11-20T03:48:54.487Z,998.94
2022-11-20T03:49:54.460Z,998.94
2022-11-20T03:50:54.488Z,998.95
2022-11-20T03:51:54.474Z,998.95
2022-11-20T03:52:54.435Z,998.96
2022-11-20T03:53:54.434Z,998.97
2022-11-20T03:54:54.425Z,998.98
2022-11-20T03:55:54.436Z,998.99
2022-11-20T03:56:54.400Z,998.99
2022-11-20T03:57:54.441Z,998.98
2022-11-20T03:58:54.389Z,998.98
2022-11-20T03:59:54.374Z,998.98
2022-11-20T04:00:54.379Z,998.98
2022-11-20T04:01:54.376Z,998.98
2022-11-20T04:02:54.334Z,998.98
2022-11-20T04:03:54.335Z,998.98
2022-11-20T04:04:54.327Z,998.98
2022-11-20T04:05:54.372Z,998.97
2022-11-20T04:06:54.294Z,998.95
2022-11-20T04:07:54.282Z,998.92
2022-11-20T04:08:54.283Z,998.89
2022-11-20T04:09:54.285Z,998.88
2022-11-20T04:10:54.274Z,998.85
2022-11-20T04:11:54.252Z,998.84
2022-11-20T04:12:54.246Z,998.84
2022-11-20T04:13:54.224Z,998.83
2022-11-20T04:14:54.211Z,998.83
2022-11-20T04:15:54.238Z,998.83
2022-11-20T04:16:54.229Z,998.83
2022-11-20T04:17:54.186Z,998.83
2022-11-20T04:18:54.181Z,998.83
2022-11-20T04:19:54.167Z,998.83
2022-11-20T04:20:54.187Z,998.82
2022-11-20T04:21:54.147Z,998.80
2022-11-20T04:22:54.151Z,998.78
2022-11-20T04:23:54.132Z,998.76
2022-11-20T04:24:54.122Z,998.75
2022-11-20T04:25:54.148Z,998.75
2022-11-20T04:26:54.110Z,998.77
2022-11-20T04:27:54.091Z,998.78
2022-11-20T04:28:54.102Z,998.79
2022-11-20T04:29:54.074Z,998.79
2022-11-20T04:30:54.103Z,998.80
2022-11-20T04:31:54.052Z,998.80
2022-11-20T04:32:54.045Z,998.79
2022-11-20T04:33:54.047Z,998.78
2022-11-20T04:34:54.015Z,998.76
2022-11-20T04:35:54.046Z,998.75
2022-11-20T04:36:53.996Z,998.74
2022-11-20T04:37:53.988Z,998.74
2022-11-20T04:38:56.969Z,998.75
2022-11-20T04:39:53.983Z,998.76
2022-11-20T04:40:53.991Z,998.78
2022-11-20T04:41:53.964Z,998.79
2022-11-20T04:42:53.963Z,998.80
2022-11-20T04:43:53.941Z,998.82
2022-11-20T04:44:53.913Z,998.83
2022-11-20T04:45:53.946Z,998.83
2022-11-20T04:46:53.911Z,998.83
2022-11-20T04:47:53.890Z,998.84
2022-11-20T04:48:53.902Z,998.85
2022-11-20T04:49:53.969Z,998.85
2022-11-20T04:50:53.894Z,998.84
2022-11-20T04:51:53.847Z,998.83
2022-11-20T04:52:53.861Z,998.82
2022-11-20T04:53:53.971Z,998.81
2022-11-20T04:54:53.918Z,998.80
2022-11-20T04:55:53.869Z,998.79
2022-11-20T04:56:53.809Z,998.79
2022-11-20T04:57:53.786Z,998.79
2022-11-20T04:58:53.815Z,998.81
2022-11-20T04:59:53.787Z,998.83
2022-11-20T05:00:53.764Z,998.85
2022-11-20T05:01:53.823Z,998.86
2022-11-20T05:02:53.748Z,998.87
2022-11-20T05:03:53.732Z,998.87
2022-11-20T05:04:53.792Z,998.87
2022-11-20T05:05:53.736Z,998.88
2022-11-20T05:06:53.733Z,998.90
2022-11-20T05:07:53.699Z,998.92
2022-11-20T05:08:53.687Z,998.93
2022-11-20T05:09:53.684Z,998.93
2022-11-20T05:10:53.703Z,998.93
2022-11-20T05:11:53.685Z,998.92
2022-11-20T05:12:53.657Z,998.92
2022-11-20T05:13:53.652Z,998.92
2022-11-20T05:14:53.641Z,998.93
2022-11-20T05:15:53.618Z,998.93
2022-11-20T05:16:53.644Z,998.92
2022-11-20T05:17:53.614Z,998.91
2022-11-20T05:18:53.588Z,998.90
2022-11-20T05:19:53.586Z,998.90
2022-11-20T05:20:53.569Z,998.90
2022-11-20T05:21:53.593Z,998.90
2022-11-20T05:22:53.555Z,998.89
2022-11-20T05:23:53.547Z,998.87
2022-11-20T05:24:53.542Z,998.85
2022-11-20T05:25:58.675Z,998.81
2022-11-20T05:26:53.531Z,998.79
2022-11-20T05:27:53.502Z,998.77
2022-11-20T05:28:53.495Z,998.75
2022-11-20T05:29:53.488Z,998.74
2022-11-20T05:30:53.483Z,998.74
2022-11-20T05:31:53.488Z,998.75
2022-11-20T05:32:53.447Z,998.76
2022-11-20T05:33:53.461Z,998.77
2022-11-20T05:34:53.432Z,998.78
2022-11-20T05:35:53.428Z,998.76
2022-11-20T05:36:53.455Z,998.74
2022-11-20T05:37:53.415Z,998.73
2022-11-20T05:38:58.033Z,998.72
2022-11-20T05:39:53.411Z,998.73
2022-11-20T05:40:53.377Z,998.75
2022-11-20T05:41:53.385Z,998.76
2022-11-20T05:42:53.358Z,998.77
2022-11-20T05:43:53.369Z,998.78
2022-11-20T05:44:53.327Z,998.78
2022-11-20T05:45:53.329Z,998.78
2022-11-20T05:46:53.339Z,998.78
2022-11-20T05:47:53.306Z,998.78
2022-11-20T05:48:53.296Z,998.77
2022-11-20T05:50:00.102Z,998.77
2022-11-20T05:50:59.748Z,998.75
2022-11-20T05:52:02.012Z,998.74
2022-11-20T05:52:53.251Z,998.72
2022-11-20T05:53:53.247Z,998.72
2022-11-20T05:54:53.269Z,998.73
2022-11-20T05:55:53.232Z,998.74
2022-11-20T05:56:53.259Z,998.74
2022-11-20T05:57:53.202Z,998.74
2022-11-20T05:58:53.196Z,998.74
2022-11-20T05:59:53.196Z,998.73
2022-11-20T06:00:53.166Z,998.73
2022-11-20T06:01:53.193Z,998.72
2022-11-20T06:02:53.244Z,998.71
2022-11-20T06:03:53.159Z,998.69
2022-11-20T06:04:53.136Z,998.69
2022-11-20T06:05:53.129Z,998.70
2022-11-20T06:06:53.152Z,998.72
2022-11-20T06:07:53.104Z,998.74
2022-11-20T06:08:53.100Z,998.75
2022-11-20T06:09:53.126Z,998.75
2022-11-20T06:10:53.078Z,998.76
2022-11-20T06:11:53.095Z,998.76
2022-11-20T06:12:53.071Z,998.76
2022-11-20T06:13:53.053Z,998.76
2022-11-20T06:14:53.041Z,998.77
2022-11-20T06:15:53.039Z,998.77
2022-11-20T06:16:53.055Z,998.76
2022-11-20T06:17:53.010Z,998.75
2022-11-20T06:18:53.023Z,998.75
2022-11-20T06:19:52.994Z,998.75
2022-11-20T06:20:52.980Z,998.76
2022-11-20T06:21:53.006Z,998.76
2022-11-20T06:22:52.906Z,998.78
2022-11-20T06:23:52.925Z,998.80
2022-11-20T06:24:52.899Z,998.80
2022-11-20T06:25:52.914Z,998.81
2022-11-20T06:26:52.920Z,998.82
2022-11-20T06:27:52.897Z,998.84
2022-11-20T06:28:52.851Z,998.84
2022-11-20T06:29:52.866Z,998.86
2022-11-20T06:30:52.885Z,998.87
2022-11-20T06:31:52.878Z,998.88
2022-11-20T06:32:52.853Z,998.88
2022-11-20T06:33:52.802Z,998.87
2022-11-20T06:34:52.789Z,998.86
2022-11-20T06:35:58.417Z,998.87
2022-11-20T06:36:52.774Z,998.87
2022-11-20T06:37:52.785Z,998.88
2022-11-20T06:38:52.765Z,998.89
2022-11-20T06:39:52.746Z,998.89
2022-11-20T06:40:52.729Z,998.89
2022-11-20T06:41:58.350Z,998.89
2022-11-20T06:42:52.745Z,998.88
2022-11-20T06:43:52.703Z,998.88
2022-11-20T06:44:52.698Z,998.89
2022-11-20T06:45:52.708Z,998.89
2022-11-20T06:46:52.664Z,998.90
2022-11-20T06:47:52.683Z,998.90
2022-11-20T06:48:52.664Z,998.90
2022-11-20T06:49:52.655Z,998.91
2022-11-20T06:50:52.636Z,998.90
2022-11-20T06:51:52.628Z,998.90
2022-11-20T06:52:52.659Z,998.89
2022-11-20T06:53:52.605Z,998.89
2022-11-20T06:54:52.594Z,998.88
2022-11-20T06:55:52.594Z,998.86
2022-11-20T06:56:52.581Z,998.85
2022-11-20T06:57:55.824Z,998.85
2022-11-20T06:58:52.553Z,998.85
2022-11-20T06:59:52.550Z,998.86
2022-11-20T07:00:52.622Z,998.87
2022-11-20T07:01:52.526Z,998.89
2022-11-20T07:02:52.560Z,998.90
2022-11-20T07:03:54.362Z,998.91
2022-11-20T07:04:52.502Z,998.93
2022-11-20T07:05:52.490Z,998.94
2022-11-20T07:06:52.484Z,998.95
2022-11-20T07:07:52.492Z,998.96
2022-11-20T07:08:52.480Z,998.97
2022-11-20T07:09:52.454Z,998.98
2022-11-20T07:10:52.449Z,998.99
2022-11-20T07:11:52.423Z,998.99
2022-11-20T07:12:52.442Z,998.99
2022-11-20T07:13:52.403Z,998.98
2022-11-20T07:14:52.415Z,998.98
2022-11-20T07:15:52.396Z,998.99
2022-11-20T07:16:58.875Z,999.00
2022-11-20T07:18:00.021Z,999.00
2022-11-20T07:18:52.360Z,999.02
2022-11-20T07:19:52.347Z,999.03
2022-11-20T07:20:59.833Z,999.04
2022-11-20T07:21:58.832Z,999.04
2022-11-20T07:23:00.051Z,999.05
2022-11-20T07:23:58.795Z,999.04
2022-11-20T07:24:59.843Z,999.04
2022-11-20T07:25:58.777Z,999.04
2022-11-20T07:26:58.776Z,999.04
2022-11-20T07:28:00.123Z,999.03
2022-11-20T07:28:58.820Z,999.01
2022-11-20T07:29:58.734Z,999.00
2022-11-20T07:30:58.723Z,999.00
2022-11-20T07:31:58.745Z,999.00
2022-11-20T07:32:59.738Z,999.01
2022-11-20T07:33:58.706Z,999.02
2022-11-20T07:34:58.693Z,999.02
2022-11-20T07:35:58.694Z,999.02
2022-11-20T07:36:58.661Z,999.01
2022-11-20T07:37:52.172Z,999.00
2022-11-20T07:39:00.822Z,998.99
2022-11-20T07:39:52.167Z,998.98
2022-11-20T07:40:52.148Z,998.98
2022-11-20T07:41:52.155Z,998.99
2022-11-20T07:42:52.124Z,998.99
2022-11-20T07:43:52.153Z,998.99
2022-11-20T07:44:58.612Z,998.98
2022-11-20T07:45:58.602Z,998.97
2022-11-20T07:46:59.588Z,998.95
2022-11-20T07:47:58.584Z,998.92
2022-11-20T07:48:52.083Z,998.91
2022-11-20T07:49:52.052Z,998.89
2022-11-20T07:50:52.046Z,998.88
2022-11-20T07:51:52.157Z,998.88
2022-11-20T07:52:52.052Z,998.88
2022-11-20T07:53:52.031Z,998.90
2022-11-20T07:54:52.007Z,998.92
2022-11-20T07:55:51.990Z,998.94
2022-11-20T07:56:51.995Z,998.97
2022-11-20T07:57:51.971Z,998.99
2022-11-20T07:58:52.017Z,998.99
2022-11-20T07:59:51.957Z,999.00
2022-11-20T08:00:52.080Z,999.01
2022-11-20T08:01:51.958Z,999.03
2022-11-20T08:02:51.942Z,999.04
2022-11-20T08:03:51.944Z,999.03
2022-11-20T08:04:51.937Z,999.02
2022-11-20T08:05:51.896Z,999.02
2022-11-20T08:06:51.905Z,999.00
2022-11-20T08:07:51.871Z,998.99
2022-11-20T08:08:51.895Z,998.97
2022-11-20T08:09:58.643Z,998.96
2022-11-20T08:10:58.338Z,998.95
2022-11-20T08:11:58.321Z,998.95
2022-11-20T08:12:51.821Z,998.95
2022-11-20T08:13:51.837Z,998.95
2022-11-20T08:14:51.818Z,998.94
2022-11-20T08:15:51.795Z,998.93
2022-11-20T08:16:51.792Z,998.92
2022-11-20T08:18:15.547Z,998.92
2022-11-20T08:18:51.803Z,998.91
2022-11-20T08:19:51.755Z,998.91
2022-11-20T08:20:51.745Z,998.92
2022-11-20T08:21:51.735Z,998.93
2022-11-20T08:22:51.729Z,998.94
2022-11-20T08:23:51.740Z,998.94
2022-11-20T08:24:51.709Z,998.93
2022-11-20T08:25:51.691Z,998.91
2022-11-20T08:26:51.697Z,998.88
2022-11-20T08:27:53.518Z,998.86
2022-11-20T08:28:51.693Z,998.86
2022-11-20T08:29:51.652Z,998.85
2022-11-20T08:30:51.792Z,998.85
2022-11-20T08:31:51.628Z,998.85
2022-11-20T08:32:51.628Z,998.85
2022-11-20T08:33:51.640Z,998.85
2022-11-20T08:34:51.622Z,998.85
2022-11-20T08:35:51.593Z,998.85
2022-11-20T08:36:51.590Z,998.85
2022-11-20T08:37:51.573Z,998.85
2022-11-20T08:38:51.594Z,998.85
2022-11-20T08:39:51.554Z,998.85
2022-11-20T08:40:51.546Z,998.83
2022-11-20T08:41:51.531Z,998.84
2022-11-20T08:42:51.550Z,998.85
2022-11-20T08:43:51.551Z,998.85
2022-11-20T08:44:51.505Z,998.85
2022-11-20T08:45:51.496Z,998.85
2022-11-20T08:46:51.487Z,998.85
2022-11-20T08:47:51.470Z,998.85
2022-11-20T08:48:51.492Z,998.84
2022-11-20T08:49:51.449Z,998.85
2022-11-20T08:50:51.447Z,998.85
2022-11-20T08:51:51.434Z,998.85
2022-11-20T08:52:51.481Z,998.84
2022-11-20T08:53:51.440Z,998.82
2022-11-20T08:54:51.412Z,998.82
2022-11-20T08:55:51.388Z,998.83
2022-11-20T08:56:51.387Z,998.85
2022-11-20T08:57:51.399Z,998.85
2022-11-20T09:00:05.417Z,998.85
2022-11-20T09:00:51.387Z,998.85
2022-11-20T09:01:51.335Z,998.86
2022-11-20T09:02:51.341Z,998.86
2022-11-20T09:03:51.332Z,998.86
2022-11-20T09:04:51.335Z,998.84
2022-11-20T09:05:51.295Z,998.83
2022-11-20T09:06:51.283Z,998.83
2022-11-20T09:07:51.269Z,998.83
2022-11-20T09:08:51.290Z,998.82
2022-11-20T09:10:16.595Z,998.80
2022-11-20T09:10:51.250Z,998.77
2022-11-20T09:11:51.233Z,998.75
2022-11-20T09:12:51.220Z,998.72
2022-11-20T09:13:51.242Z,998.70
2022-11-20T09:14:54.949Z,998.68
2022-11-20T09:15:51.200Z,998.67
2022-11-20T09:16:51.221Z,998.66
2022-11-20T09:17:51.193Z,998.64
2022-11-20T09:19:02.218Z,998.64
2022-11-20T09:19:51.180Z,998.63
2022-11-20T09:20:51.186Z,998.62
2022-11-20T09:21:52.799Z,998.62
2022-11-20T09:22:51.127Z,998.61
2022-11-20T09:23:51.117Z,998.59
2022-11-20T09:24:51.126Z,998.58
2022-11-20T09:25:51.091Z,998.57
2022-11-20T09:26:51.097Z,998.58
2022-11-20T09:27:51.081Z,998.58
2022-11-20T09:28:55.408Z,998.58
2022-11-20T09:29:51.086Z,998.58
2022-11-20T09:30:51.042Z,998.57
2022-11-20T09:31:51.063Z,998.56
2022-11-20T09:32:51.026Z,998.55
2022-11-20T09:33:51.004Z,998.53
2022-11-20T09:34:51.024Z,998.51
2022-11-20T09:35:50.990Z,998.49
2022-11-20T09:36:50.986Z,998.50
2022-11-20T09:37:50.974Z,998.49
2022-11-20T09:38:50.965Z,998.47
2022-11-20T09:39:50.974Z,998.46
2022-11-20T09:40:50.948Z,998.44
2022-11-20T09:41:50.934Z,998.43
2022-11-20T09:42:50.930Z,998.43
2022-11-20T09:43:50.912Z,998.43
2022-11-20T09:44:58.445Z,998.43
2022-11-20T09:45:57.386Z,998.44
2022-11-20T09:46:50.885Z,998.47
2022-11-20T09:47:50.874Z,998.49
2022-11-20T09:48:50.867Z,998.51
2022-11-20T09:49:50.877Z,998.51
2022-11-20T09:50:50.862Z,998.50
2022-11-20T09:51:50.827Z,998.49
2022-11-20T09:52:50.828Z,998.49
2022-11-20T09:53:50.820Z,998.47
2022-11-20T09:54:50.823Z,998.46
2022-11-20T09:55:50.794Z,998.44
2022-11-20T09:56:50.799Z,998.43
2022-11-20T09:57:50.772Z,998.42
2022-11-20T09:58:50.763Z,998.41
2022-11-20T09:59:50.778Z,998.42
2022-11-20T10:00:50.764Z,998.42
2022-11-20T10:01:50.732Z,998.43
2022-11-20T10:02:50.730Z,998.44
2022-11-20T10:03:50.711Z,998.44
2022-11-20T10:04:50.726Z,998.42
2022-11-20T10:05:50.686Z,998.39
2022-11-20T10:06:59.747Z,998.36
2022-11-20T10:07:50.712Z,998.32
2022-11-20T10:08:50.662Z,998.29
2022-11-20T10:09:50.677Z,998.25
2022-11-20T10:10:53.661Z,998.24
2022-11-20T10:11:50.628Z,998.24
2022-11-20T10:12:50.619Z,998.24
2022-11-20T10:13:50.607Z,998.24
2022-11-20T10:14:50.626Z,998.25
2022-11-20T10:15:50.583Z,998.25
2022-11-20T10:16:50.579Z,998.24
2022-11-20T10:17:50.570Z,998.24
2022-11-20T10:18:50.564Z,998.23
2022-11-20T10:19:50.562Z,998.22
2022-11-20T10:20:50.543Z,998.22
2022-11-20T10:21:50.524Z,998.23
2022-11-20T10:22:50.515Z,998.23
2022-11-20T10:23:50.510Z,998.23
2022-11-20T10:24:50.534Z,998.22
2022-11-20T10:25:50.485Z,998.21
2022-11-20T10:26:50.473Z,998.20
2022-11-20T10:27:56.964Z,998.19
2022-11-20T10:29:00.630Z,998.19
2022-11-20T10:29:50.468Z,998.20
2022-11-20T10:30:50.429Z,998.23
2022-11-20T10:31:50.427Z,998.26
2022-11-20T10:32:50.411Z,998.26
2022-11-20T10:34:11.147Z,998.26
2022-11-20T10:34:50.428Z,998.25
2022-11-20T10:35:50.391Z,998.24
2022-11-20T10:36:50.370Z,998.22
2022-11-20T10:37:50.367Z,998.21
2022-11-20T10:38:50.346Z,998.19
2022-11-20T10:39:50.368Z,998.18
2022-11-20T10:40:50.329Z,998.18
2022-11-20T10:41:50.321Z,998.18
2022-11-20T10:42:50.310Z,998.20
2022-11-20T10:43:50.302Z,998.20
2022-11-20T10:44:56.234Z,998.21
2022-11-20T10:45:50.286Z,998.18
2022-11-20T10:46:50.340Z,998.16
2022-11-20T10:47:50.264Z,998.15
2022-11-20T10:48:50.250Z,998.15
2022-11-20T10:49:50.270Z,998.15
2022-11-20T10:50:50.249Z,998.13
2022-11-20T10:51:50.241Z,998.08
2022-11-20T10:52:50.210Z,998.05
2022-11-20T10:53:50.206Z,998.02
2022-11-20T10:54:50.187Z,998.03
2022-11-20T10:55:50.217Z,998.01
2022-11-20T10:56:50.601Z,998.01
2022-11-20T10:57:50.165Z,998.00
2022-11-20T10:58:50.158Z,998.02
2022-11-20T10:59:50.144Z,998.03
2022-11-20T11:00:50.249Z,998.03
2022-11-20T11:01:50.145Z,998.03
2022-11-20T11:02:50.125Z,998.03
2022-11-20T11:03:50.113Z,998.02
2022-11-20T11:04:50.085Z,998.01
2022-11-20T11:05:50.099Z,998.01
2022-11-20T11:06:50.059Z,998.00
2022-11-20T11:07:50.061Z,997.97
2022-11-20T11:08:50.056Z,997.95
2022-11-20T11:09:50.047Z,997.93
2022-11-20T11:10:50.069Z,997.91
2022-11-20T11:11:50.050Z,997.89
2022-11-20T11:12:49.997Z,997.87
2022-11-20T11:13:49.996Z,997.86
2022-11-20T11:14:50.098Z,997.87
2022-11-20T11:15:50.005Z,997.87
2022-11-20T11:16:49.959Z,997.85
2022-11-20T11:17:49.954Z,997.84
2022-11-20T11:18:49.947Z,997.81
2022-11-20T11:19:49.933Z,997.77
2022-11-20T11:20:49.947Z,997.75
2022-11-20T11:21:55.104Z,997.72
2022-11-20T11:22:49.948Z,997.71
2022-11-20T11:23:49.890Z,997.72
2022-11-20T11:24:49.876Z,997.72
2022-11-20T11:25:49.903Z,997.70
2022-11-20T11:26:49.864Z,997.70
2022-11-20T11:27:49.855Z,997.70
2022-11-20T11:28:49.872Z,997.70
2022-11-20T11:29:49.844Z,997.71
2022-11-20T11:30:49.838Z,997.72
2022-11-20T11:31:49.813Z,997.72
2022-11-20T11:32:49.802Z,997.70
2022-11-20T11:33:49.788Z,997.70
2022-11-20T11:34:49.779Z,997.70
2022-11-20T11:35:51.564Z,997.69
2022-11-20T11:36:49.758Z,997.67
2022-11-20T11:37:49.755Z,997.65
2022-11-20T11:38:49.741Z,997.63
2022-11-20T11:40:03.858Z,997.61
2022-11-20T11:40:49.746Z,997.59
2022-11-20T11:41:49.710Z,997.58
2022-11-20T11:42:49.702Z,997.57
2022-11-20T11:43:49.731Z,997.56
2022-11-20T11:44:49.672Z,997.56
2022-11-20T11:45:49.691Z,997.56
2022-11-20T11:46:49.656Z,997.56
2022-11-20T11:47:49.645Z,997.55
2022-11-20T11:48:50.795Z,997.55
2022-11-20T11:49:49.623Z,997.54
2022-11-20T11:50:49.636Z,997.56
2022-11-20T11:51:49.621Z,997.56
2022-11-20T11:52:49.595Z,997.56
2022-11-20T11:53:49.581Z,997.55
2022-11-20T11:54:49.571Z,997.55
2022-11-20T11:55:49.598Z,997.53
2022-11-20T11:56:49.550Z,997.50
2022-11-20T11:57:49.546Z,997.48
2022-11-20T11:58:49.541Z,997.46
2022-11-20T11:59:49.521Z,997.45
2022-11-20T12:00:49.547Z,997.44
2022-11-20T12:01:50.307Z,997.43
2022-11-20T12:02:49.500Z,997.43
2022-11-20T12:03:49.483Z,997.41
2022-11-20T12:04:49.467Z,997.41
2022-11-20T12:05:56.984Z,997.39
2022-11-20T12:06:55.947Z,997.36
2022-11-20T12:07:56.976Z,997.32
2022-11-20T12:08:49.426Z,997.31
2022-11-20T12:09:49.421Z,997.30
2022-11-20T12:10:49.412Z,997.29
2022-11-20T12:11:49.449Z,997.28
2022-11-20T12:12:49.403Z,997.27
2022-11-20T12:13:49.378Z,997.24
2022-11-20T12:14:49.367Z,997.21
2022-11-20T12:15:57.020Z,997.17
2022-11-20T12:16:49.347Z,997.15
2022-11-20T12:17:55.847Z,997.13
2022-11-20T12:18:55.813Z,997.13
2022-11-20T12:19:55.817Z,997.14
2022-11-20T12:20:55.804Z,997.13
2022-11-20T12:22:00.301Z,997.13
2022-11-20T12:22:49.302Z,997.12
2022-11-20T12:23:49.381Z,997.10
2022-11-20T12:24:49.268Z,997.09
2022-11-20T12:25:49.255Z,997.07
2022-11-20T12:26:49.266Z,997.04
2022-11-20T12:27:49.256Z,997.03